sensor_id;sensor_type;location;lat;lon;timestamp;P1;durP1;ratioP1;P2;durP2;ratioP2
19059;SDS011;9663;48.996;8.334;2023-04-06T00:02:08;4.25;;;1.52;;
19059;SDS011;9663;48.996;8.334;2023-04-06T00:04:33;3.92;;;1.60;;
19059;SDS011;9663;48.996;8.334;2023-04-06T00:06:59;3.35;;;1.33;;
19059;SDS011;9663;48.996;8.334;2023-04-06T00:09:25;4.10;;;1.35;;
19059;SDS011;9663;48.996;8.334;2023-04-06T00:11:51;4.30;;;1.50;;
19059;SDS011;9663;48.996;8.334;2023-04-06T00:14:17;2.95;;;1.17;;
19059;SDS011;9663;48.996;8.334;2023-04-06T00:16:43;3.75;;;1.30;;
19059;SDS011;9663;48.996;8.334;2023-04-06T00:19:09;3.03;;;1.25;;
19059;SDS011;9663;48.996;8.334;2023-04-06T00:21:34;4.20;;;1.40;;
19059;SDS011;9663;48.996;8.334;2023-04-06T00:24:00;3.38;;;1.35;;
19059;SDS011;9663;48.996;8.334;2023-04-06T00:26:26;4.60;;;1.55;;
19059;SDS011;9663;48.996;8.334;2023-04-06T00:28:52;3.25;;;1.30;;
19059;SDS011;9663;48.996;8.334;2023-04-06T00:31:18;3.03;;;1.20;;
19059;SDS011;9663;48.996;8.334;2023-04-06T00:33:44;3.33;;;1.30;;
19059;SDS011;9663;48.996;8.334;2023-04-06T00:36:09;3.20;;;1.17;;
19059;SDS011;9663;48.996;8.334;2023-04-06T00:38:35;3.92;;;1.25;;
19059;SDS011;9663;48.996;8.334;2023-04-06T00:41:02;3.30;;;1.23;;
19059;SDS011;9663;48.996;8.334;2023-04-06T00:43:29;2.58;;;1.13;;
19059;SDS011;9663;48.996;8.334;2023-04-06T00:45:55;3.78;;;1.30;;
19059;SDS011;9663;48.996;8.334;2023-04-06T00:48:21;5.55;;;1.77;;
19059;SDS011;9663;48.996;8.334;2023-04-06T00:50:47;4.28;;;1.60;;
19059;SDS011;9663;48.996;8.334;2023-04-06T00:53:13;4.03;;;1.10;;
19059;SDS011;9663;48.996;8.334;2023-04-06T00:55:39;3.83;;;1.30;;
19059;SDS011;9663;48.996;8.334;2023-04-06T00:58:05;3.35;;;1.30;;
19059;SDS011;9663;48.996;8.334;2023-04-06T01:00:31;4.55;;;1.42;;
19059;SDS011;9663;48.996;8.334;2023-04-06T01:02:58;3.17;;;1.20;;
19059;SDS011;9663;48.996;8.334;2023-04-06T01:05:24;3.67;;;1.40;;
19059;SDS011;9663;48.996;8.334;2023-04-06T01:07:50;3.90;;;1.40;;
19059;SDS011;9663;48.996;8.334;2023-04-06T01:10:25;3.15;;;1.08;;
19059;SDS011;9663;48.996;8.334;2023-04-06T01:12:52;4.68;;;1.50;;
19059;SDS011;9663;48.996;8.334;2023-04-06T01:15:18;3.20;;;1.20;;
19059;SDS011;9663;48.996;8.334;2023-04-06T01:17:45;3.65;;;1.25;;
19059;SDS011;9663;48.996;8.334;2023-04-06T01:20:11;3.40;;;1.30;;
19059;SDS011;9663;48.996;8.334;2023-04-06T01:22:38;3.75;;;1.00;;
19059;SDS011;9663;48.996;8.334;2023-04-06T01:25:03;3.22;;;1.27;;
19059;SDS011;9663;48.996;8.334;2023-04-06T01:27:30;2.80;;;1.15;;
19059;SDS011;9663;48.996;8.334;2023-04-06T01:29:56;3.53;;;1.20;;
19059;SDS011;9663;48.996;8.334;2023-04-06T01:32:22;2.97;;;1.00;;
19059;SDS011;9663;48.996;8.334;2023-04-06T01:34:47;3.88;;;1.35;;
19059;SDS011;9663;48.996;8.334;2023-04-06T01:37:13;3.88;;;1.20;;
19059;SDS011;9663;48.996;8.334;2023-04-06T01:39:39;3.58;;;1.40;;
19059;SDS011;9663;48.996;8.334;2023-04-06T01:42:07;4.50;;;1.38;;
19059;SDS011;9663;48.996;8.334;2023-04-06T01:44:32;2.80;;;1.10;;
19059;SDS011;9663;48.996;8.334;2023-04-06T01:46:58;4.13;;;1.40;;
19059;SDS011;9663;48.996;8.334;2023-04-06T01:49:24;3.25;;;1.25;;
19059;SDS011;9663;48.996;8.334;2023-04-06T01:51:50;3.55;;;1.42;;
19059;SDS011;9663;48.996;8.334;2023-04-06T01:54:17;3.35;;;1.20;;
19059;SDS011;9663;48.996;8.334;2023-04-06T01:56:42;3.53;;;1.30;;
19059;SDS011;9663;48.996;8.334;2023-04-06T01:59:08;3.97;;;1.10;;
19059;SDS011;9663;48.996;8.334;2023-04-06T02:01:34;4.40;;;1.50;;
19059;SDS011;9663;48.996;8.334;2023-04-06T02:04:00;2.92;;;1.10;;
19059;SDS011;9663;48.996;8.334;2023-04-06T02:06:25;3.00;;;1.20;;
19059;SDS011;9663;48.996;8.334;2023-04-06T02:08:51;2.50;;;0.88;;
19059;SDS011;9663;48.996;8.334;2023-04-06T02:11:17;3.28;;;1.10;;
19059;SDS011;9663;48.996;8.334;2023-04-06T02:13:43;3.35;;;1.10;;
19059;SDS011;9663;48.996;8.334;2023-04-06T02:16:08;4.25;;;1.25;;
19059;SDS011;9663;48.996;8.334;2023-04-06T02:18:34;3.55;;;1.38;;
19059;SDS011;9663;48.996;8.334;2023-04-06T02:21:00;3.90;;;1.30;;
19059;SDS011;9663;48.996;8.334;2023-04-06T02:23:26;3.10;;;1.08;;
19059;SDS011;9663;48.996;8.334;2023-04-06T02:25:52;4.13;;;1.40;;
19059;SDS011;9663;48.996;8.334;2023-04-06T02:28:17;2.92;;;1.20;;
19059;SDS011;9663;48.996;8.334;2023-04-06T02:30:43;3.40;;;1.23;;
19059;SDS011;9663;48.996;8.334;2023-04-06T02:33:09;4.57;;;1.40;;
19059;SDS011;9663;48.996;8.334;2023-04-06T02:35:35;2.97;;;1.30;;
19059;SDS011;9663;48.996;8.334;2023-04-06T02:38:00;2.83;;;1.17;;
19059;SDS011;9663;48.996;8.334;2023-04-06T02:40:26;2.67;;;0.88;;
19059;SDS011;9663;48.996;8.334;2023-04-06T02:42:52;3.38;;;1.30;;
19059;SDS011;9663;48.996;8.334;2023-04-06T02:45:17;3.13;;;1.20;;
19059;SDS011;9663;48.996;8.334;2023-04-06T02:47:43;3.72;;;1.30;;
19059;SDS011;9663;48.996;8.334;2023-04-06T02:50:10;3.63;;;1.40;;
19059;SDS011;9663;48.996;8.334;2023-04-06T02:52:35;3.63;;;1.23;;
19059;SDS011;9663;48.996;8.334;2023-04-06T02:55:01;3.67;;;1.20;;
19059;SDS011;9663;48.996;8.334;2023-04-06T02:57:27;3.03;;;1.05;;
19059;SDS011;9663;48.996;8.334;2023-04-06T02:59:53;4.50;;;1.40;;
19059;SDS011;9663;48.996;8.334;2023-04-06T03:02:18;3.33;;;1.20;;
19059;SDS011;9663;48.996;8.334;2023-04-06T03:04:44;3.30;;;1.10;;
19059;SDS011;9663;48.996;8.334;2023-04-06T03:07:10;2.90;;;1.00;;
19059;SDS011;9663;48.996;8.334;2023-04-06T03:09:38;3.50;;;1.40;;
19059;SDS011;9663;48.996;8.334;2023-04-06T03:12:04;3.13;;;1.33;;
19059;SDS011;9663;48.996;8.334;2023-04-06T03:14:30;3.22;;;1.40;;
19059;SDS011;9663;48.996;8.334;2023-04-06T03:16:56;4.05;;;1.30;;
19059;SDS011;9663;48.996;8.334;2023-04-06T03:19:22;2.63;;;1.10;;
19059;SDS011;9663;48.996;8.334;2023-04-06T03:21:47;4.13;;;1.27;;
19059;SDS011;9663;48.996;8.334;2023-04-06T03:24:13;2.60;;;1.00;;
19059;SDS011;9663;48.996;8.334;2023-04-06T03:26:39;2.72;;;1.20;;
19059;SDS011;9663;48.996;8.334;2023-04-06T03:29:05;2.42;;;1.00;;
19059;SDS011;9663;48.996;8.334;2023-04-06T03:31:31;2.88;;;1.10;;
19059;SDS011;9663;48.996;8.334;2023-04-06T03:33:56;2.67;;;1.17;;
19059;SDS011;9663;48.996;8.334;2023-04-06T03:36:22;3.42;;;1.30;;
19059;SDS011;9663;48.996;8.334;2023-04-06T03:38:48;3.30;;;1.20;;
19059;SDS011;9663;48.996;8.334;2023-04-06T03:41:15;4.32;;;1.40;;
19059;SDS011;9663;48.996;8.334;2023-04-06T03:43:40;3.10;;;1.10;;
19059;SDS011;9663;48.996;8.334;2023-04-06T03:46:06;3.10;;;1.20;;
19059;SDS011;9663;48.996;8.334;2023-04-06T03:48:32;2.78;;;0.95;;
19059;SDS011;9663;48.996;8.334;2023-04-06T03:50:57;3.10;;;1.13;;
19059;SDS011;9663;48.996;8.334;2023-04-06T03:53:23;3.17;;;1.20;;
19059;SDS011;9663;48.996;8.334;2023-04-06T03:55:49;3.72;;;1.20;;
19059;SDS011;9663;48.996;8.334;2023-04-06T03:58:15;3.85;;;1.20;;
19059;SDS011;9663;48.996;8.334;2023-04-06T04:00:41;2.53;;;0.98;;
19059;SDS011;9663;48.996;8.334;2023-04-06T04:03:06;2.88;;;1.10;;
19059;SDS011;9663;48.996;8.334;2023-04-06T04:05:32;3.40;;;1.27;;
19059;SDS011;9663;48.996;8.334;2023-04-06T04:07:58;3.13;;;1.10;;
19059;SDS011;9663;48.996;8.334;2023-04-06T04:10:23;2.95;;;1.10;;
19059;SDS011;9663;48.996;8.334;2023-04-06T04:12:49;2.55;;;1.10;;
19059;SDS011;9663;48.996;8.334;2023-04-06T04:15:15;2.58;;;0.98;;
19059;SDS011;9663;48.996;8.334;2023-04-06T04:17:41;3.15;;;1.08;;
19059;SDS011;9663;48.996;8.334;2023-04-06T04:20:11;3.70;;;1.10;;
19059;SDS011;9663;48.996;8.334;2023-04-06T04:22:37;3.25;;;1.20;;
19059;SDS011;9663;48.996;8.334;2023-04-06T04:25:03;2.22;;;0.90;;
19059;SDS011;9663;48.996;8.334;2023-04-06T04:27:29;3.80;;;1.27;;
19059;SDS011;9663;48.996;8.334;2023-04-06T04:29:55;3.47;;;1.30;;
19059;SDS011;9663;48.996;8.334;2023-04-06T04:32:20;3.13;;;1.30;;
19059;SDS011;9663;48.996;8.334;2023-04-06T04:34:46;2.83;;;1.05;;
19059;SDS011;9663;48.996;8.334;2023-04-06T04:37:12;2.75;;;1.00;;
19059;SDS011;9663;48.996;8.334;2023-04-06T04:39:37;3.85;;;1.20;;
19059;SDS011;9663;48.996;8.334;2023-04-06T04:42:03;4.40;;;1.35;;
19059;SDS011;9663;48.996;8.334;2023-04-06T04:44:29;3.42;;;1.30;;
19059;SDS011;9663;48.996;8.334;2023-04-06T04:46:55;3.08;;;1.15;;
19059;SDS011;9663;48.996;8.334;2023-04-06T04:49:21;3.22;;;1.30;;
19059;SDS011;9663;48.996;8.334;2023-04-06T04:51:47;2.75;;;1.10;;
19059;SDS011;9663;48.996;8.334;2023-04-06T04:54:13;3.70;;;1.40;;
19059;SDS011;9663;48.996;8.334;2023-04-06T04:56:38;3.47;;;1.20;;
19059;SDS011;9663;48.996;8.334;2023-04-06T04:59:04;3.22;;;1.10;;
19059;SDS011;9663;48.996;8.334;2023-04-06T05:01:30;3.22;;;1.13;;
19059;SDS011;9663;48.996;8.334;2023-04-06T05:03:55;4.15;;;1.10;;
19059;SDS011;9663;48.996;8.334;2023-04-06T05:06:21;3.75;;;1.35;;
19059;SDS011;9663;48.996;8.334;2023-04-06T05:08:47;3.75;;;1.20;;
19059;SDS011;9663;48.996;8.334;2023-04-06T05:11:12;2.33;;;1.00;;
19059;SDS011;9663;48.996;8.334;2023-04-06T05:13:38;2.50;;;1.05;;
19059;SDS011;9663;48.996;8.334;2023-04-06T05:16:04;3.65;;;1.25;;
19059;SDS011;9663;48.996;8.334;2023-04-06T05:18:30;4.45;;;1.48;;
19059;SDS011;9663;48.996;8.334;2023-04-06T05:20:56;3.67;;;1.30;;
19059;SDS011;9663;48.996;8.334;2023-04-06T05:23:22;2.72;;;1.02;;
19059;SDS011;9663;48.996;8.334;2023-04-06T05:25:47;3.40;;;1.10;;
19059;SDS011;9663;48.996;8.334;2023-04-06T05:28:14;3.30;;;1.10;;
19059;SDS011;9663;48.996;8.334;2023-04-06T05:30:41;2.97;;;1.13;;
19059;SDS011;9663;48.996;8.334;2023-04-06T05:33:09;2.78;;;1.10;;
19059;SDS011;9663;48.996;8.334;2023-04-06T05:35:36;3.50;;;1.23;;
19059;SDS011;9663;48.996;8.334;2023-04-06T05:38:02;2.75;;;1.00;;
19059;SDS011;9663;48.996;8.334;2023-04-06T05:40:27;2.65;;;1.10;;
19059;SDS011;9663;48.996;8.334;2023-04-06T05:42:53;3.03;;;1.23;;
19059;SDS011;9663;48.996;8.334;2023-04-06T05:45:19;3.15;;;1.20;;
19059;SDS011;9663;48.996;8.334;2023-04-06T05:47:46;3.60;;;1.40;;
19059;SDS011;9663;48.996;8.334;2023-04-06T05:50:12;4.05;;;1.33;;
19059;SDS011;9663;48.996;8.334;2023-04-06T05:52:40;3.97;;;1.38;;
19059;SDS011;9663;48.996;8.334;2023-04-06T05:55:08;3.72;;;1.35;;
19059;SDS011;9663;48.996;8.334;2023-04-06T05:57:34;3.47;;;1.45;;
19059;SDS011;9663;48.996;8.334;2023-04-06T06:00:00;2.90;;;1.20;;
19059;SDS011;9663;48.996;8.334;2023-04-06T06:02:30;3.63;;;1.30;;
19059;SDS011;9663;48.996;8.334;2023-04-06T06:04:56;3.13;;;1.10;;
19059;SDS011;9663;48.996;8.334;2023-04-06T06:07:23;2.88;;;1.20;;
19059;SDS011;9663;48.996;8.334;2023-04-06T06:09:49;3.20;;;1.38;;
19059;SDS011;9663;48.996;8.334;2023-04-06T06:12:15;3.38;;;1.20;;
19059;SDS011;9663;48.996;8.334;2023-04-06T06:14:41;2.60;;;1.17;;
19059;SDS011;9663;48.996;8.334;2023-04-06T06:17:07;4.60;;;1.50;;
19059;SDS011;9663;48.996;8.334;2023-04-06T06:19:34;3.10;;;1.40;;
19059;SDS011;9663;48.996;8.334;2023-04-06T06:21:59;3.00;;;1.20;;
19059;SDS011;9663;48.996;8.334;2023-04-06T06:24:27;3.65;;;1.50;;
19059;SDS011;9663;48.996;8.334;2023-04-06T06:26:53;3.78;;;1.48;;
19059;SDS011;9663;48.996;8.334;2023-04-06T06:29:19;3.70;;;1.50;;
19059;SDS011;9663;48.996;8.334;2023-04-06T06:31:44;3.72;;;1.60;;
19059;SDS011;9663;48.996;8.334;2023-04-06T06:34:10;3.15;;;1.33;;
19059;SDS011;9663;48.996;8.334;2023-04-06T06:36:37;3.55;;;1.30;;
19059;SDS011;9663;48.996;8.334;2023-04-06T06:39:03;3.53;;;1.50;;
19059;SDS011;9663;48.996;8.334;2023-04-06T06:41:29;5.50;;;1.42;;
19059;SDS011;9663;48.996;8.334;2023-04-06T06:43:55;3.70;;;1.65;;
19059;SDS011;9663;48.996;8.334;2023-04-06T06:46:20;3.17;;;1.30;;
19059;SDS011;9663;48.996;8.334;2023-04-06T06:48:46;3.60;;;1.50;;
19059;SDS011;9663;48.996;8.334;2023-04-06T06:51:12;4.35;;;1.60;;
19059;SDS011;9663;48.996;8.334;2023-04-06T06:53:38;3.95;;;1.58;;
19059;SDS011;9663;48.996;8.334;2023-04-06T06:56:03;4.55;;;1.60;;
19059;SDS011;9663;48.996;8.334;2023-04-06T06:58:29;3.95;;;1.52;;
19059;SDS011;9663;48.996;8.334;2023-04-06T07:00:56;4.82;;;1.75;;
19059;SDS011;9663;48.996;8.334;2023-04-06T07:03:23;4.03;;;1.58;;
19059;SDS011;9663;48.996;8.334;2023-04-06T07:05:49;4.20;;;1.52;;
19059;SDS011;9663;48.996;8.334;2023-04-06T07:08:18;5.18;;;1.92;;
19059;SDS011;9663;48.996;8.334;2023-04-06T07:10:49;4.13;;;1.75;;
19059;SDS011;9663;48.996;8.334;2023-04-06T07:13:21;4.82;;;2.05;;
19059;SDS011;9663;48.996;8.334;2023-04-06T07:15:51;4.70;;;1.83;;
19059;SDS011;9663;48.996;8.334;2023-04-06T07:18:17;3.17;;;1.35;;
19059;SDS011;9663;48.996;8.334;2023-04-06T07:20:46;4.72;;;1.75;;
19059;SDS011;9663;48.996;8.334;2023-04-06T07:23:12;5.68;;;1.63;;
19059;SDS011;9663;48.996;8.334;2023-04-06T07:25:38;4.85;;;2.05;;
19059;SDS011;9663;48.996;8.334;2023-04-06T07:28:04;3.50;;;1.50;;
19059;SDS011;9663;48.996;8.334;2023-04-06T07:30:30;4.05;;;1.90;;
19059;SDS011;9663;48.996;8.334;2023-04-06T07:32:56;4.38;;;1.88;;
19059;SDS011;9663;48.996;8.334;2023-04-06T07:35:24;3.65;;;1.80;;
19059;SDS011;9663;48.996;8.334;2023-04-06T07:37:51;4.40;;;2.00;;
19059;SDS011;9663;48.996;8.334;2023-04-06T07:40:20;4.97;;;1.80;;
19059;SDS011;9663;48.996;8.334;2023-04-06T07:42:46;3.95;;;1.92;;
19059;SDS011;9663;48.996;8.334;2023-04-06T07:45:12;4.13;;;1.83;;
19059;SDS011;9663;48.996;8.334;2023-04-06T07:47:38;4.30;;;2.03;;
19059;SDS011;9663;48.996;8.334;2023-04-06T07:50:04;4.55;;;1.90;;
19059;SDS011;9663;48.996;8.334;2023-04-06T07:52:30;3.80;;;1.63;;
19059;SDS011;9663;48.996;8.334;2023-04-06T07:54:59;3.92;;;1.60;;
19059;SDS011;9663;48.996;8.334;2023-04-06T07:57:25;3.97;;;1.77;;
19059;SDS011;9663;48.996;8.334;2023-04-06T07:59:50;4.68;;;1.95;;
19059;SDS011;9663;48.996;8.334;2023-04-06T08:02:16;4.35;;;1.85;;
19059;SDS011;9663;48.996;8.334;2023-04-06T08:04:43;3.70;;;1.55;;
19059;SDS011;9663;48.996;8.334;2023-04-06T08:07:09;4.05;;;1.70;;
19059;SDS011;9663;48.996;8.334;2023-04-06T08:09:35;3.75;;;1.60;;
19059;SDS011;9663;48.996;8.334;2023-04-06T08:12:01;4.60;;;1.88;;
19059;SDS011;9663;48.996;8.334;2023-04-06T08:14:27;4.68;;;1.80;;
19059;SDS011;9663;48.996;8.334;2023-04-06T08:16:52;3.55;;;1.73;;
19059;SDS011;9663;48.996;8.334;2023-04-06T08:19:18;4.30;;;1.90;;
19059;SDS011;9663;48.996;8.334;2023-04-06T08:21:44;4.60;;;2.13;;
19059;SDS011;9663;48.996;8.334;2023-04-06T08:24:14;3.50;;;1.75;;
19059;SDS011;9663;48.996;8.334;2023-04-06T08:26:40;3.70;;;1.80;;
19059;SDS011;9663;48.996;8.334;2023-04-06T08:29:09;4.50;;;1.90;;
19059;SDS011;9663;48.996;8.334;2023-04-06T08:31:35;4.93;;;1.80;;
19059;SDS011;9663;48.996;8.334;2023-04-06T08:34:02;4.85;;;1.80;;
19059;SDS011;9663;48.996;8.334;2023-04-06T08:36:30;4.05;;;1.90;;
19059;SDS011;9663;48.996;8.334;2023-04-06T08:38:56;4.07;;;1.92;;
19059;SDS011;9663;48.996;8.334;2023-04-06T08:41:22;5.15;;;2.40;;
19059;SDS011;9663;48.996;8.334;2023-04-06T08:43:48;4.10;;;2.10;;
19059;SDS011;9663;48.996;8.334;2023-04-06T08:46:22;3.97;;;1.80;;
19059;SDS011;9663;48.996;8.334;2023-04-06T08:48:55;3.85;;;2.00;;
19059;SDS011;9663;48.996;8.334;2023-04-06T08:51:26;4.40;;;1.95;;
19059;SDS011;9663;48.996;8.334;2023-04-06T08:53:54;4.95;;;2.25;;
19059;SDS011;9663;48.996;8.334;2023-04-06T08:56:23;4.60;;;1.90;;
19059;SDS011;9663;48.996;8.334;2023-04-06T08:58:51;4.40;;;2.00;;
19059;SDS011;9663;48.996;8.334;2023-04-06T09:01:28;3.92;;;2.05;;
19059;SDS011;9663;48.996;8.334;2023-04-06T09:03:57;4.50;;;1.80;;
19059;SDS011;9663;48.996;8.334;2023-04-06T09:06:25;4.40;;;1.92;;
19059;SDS011;9663;48.996;8.334;2023-04-06T09:08:55;4.93;;;2.17;;
19059;SDS011;9663;48.996;8.334;2023-04-06T09:11:23;4.10;;;2.00;;
19059;SDS011;9663;48.996;8.334;2023-04-06T09:13:50;4.25;;;1.95;;
19059;SDS011;9663;48.996;8.334;2023-04-06T09:16:18;5.13;;;2.33;;
19059;SDS011;9663;48.996;8.334;2023-04-06T09:18:45;4.55;;;2.17;;
19059;SDS011;9663;48.996;8.334;2023-04-06T09:21:11;3.90;;;1.90;;
19059;SDS011;9663;48.996;8.334;2023-04-06T09:23:38;5.70;;;2.15;;
19059;SDS011;9663;48.996;8.334;2023-04-06T09:28:50;4.45;;;2.40;;
19059;SDS011;9663;48.996;8.334;2023-04-06T09:31:26;5.68;;;3.00;;
19059;SDS011;9663;48.996;8.334;2023-04-06T09:33:55;6.72;;;4.18;;
19059;SDS011;9663;48.996;8.334;2023-04-06T09:36:31;6.25;;;3.65;;
19059;SDS011;9663;48.996;8.334;2023-04-06T09:39:03;5.40;;;2.97;;
19059;SDS011;9663;48.996;8.334;2023-04-06T09:41:36;6.53;;;3.70;;
19059;SDS011;9663;48.996;8.334;2023-04-06T09:44:05;5.07;;;2.90;;
19059;SDS011;9663;48.996;8.334;2023-04-06T09:49:07;4.53;;;2.28;;
19059;SDS011;9663;48.996;8.334;2023-04-06T09:51:38;4.95;;;2.42;;
19059;SDS011;9663;48.996;8.334;2023-04-06T09:54:11;6.28;;;2.67;;
19059;SDS011;9663;48.996;8.334;2023-04-06T09:56:47;5.30;;;2.45;;
19059;SDS011;9663;48.996;8.334;2023-04-06T10:04:58;4.88;;;2.40;;
19059;SDS011;9663;48.996;8.334;2023-04-06T10:07:32;4.63;;;2.35;;
19059;SDS011;9663;48.996;8.334;2023-04-06T10:09:58;5.70;;;2.58;;
19059;SDS011;9663;48.996;8.334;2023-04-06T10:12:28;4.38;;;2.40;;
19059;SDS011;9663;48.996;8.334;2023-04-06T10:14:53;4.18;;;2.00;;
19059;SDS011;9663;48.996;8.334;2023-04-06T10:17:21;5.65;;;2.25;;
19059;SDS011;9663;48.996;8.334;2023-04-06T10:23:01;4.60;;;1.88;;
19059;SDS011;9663;48.996;8.334;2023-04-06T10:25:55;4.28;;;2.03;;
19059;SDS011;9663;48.996;8.334;2023-04-06T10:28:23;4.22;;;2.20;;
19059;SDS011;9663;48.996;8.334;2023-04-06T10:30:56;4.80;;;2.17;;
19059;SDS011;9663;48.996;8.334;2023-04-06T10:33:23;4.35;;;2.00;;
19059;SDS011;9663;48.996;8.334;2023-04-06T10:35:49;4.78;;;2.13;;
19059;SDS011;9663;48.996;8.334;2023-04-06T10:38:15;3.75;;;1.80;;
19059;SDS011;9663;48.996;8.334;2023-04-06T10:40:46;4.20;;;2.08;;
19059;SDS011;9663;48.996;8.334;2023-04-06T10:43:13;4.32;;;1.80;;
19059;SDS011;9663;48.996;8.334;2023-04-06T10:45:54;4.53;;;2.17;;
19059;SDS011;9663;48.996;8.334;2023-04-06T10:48:22;4.88;;;2.42;;
19059;SDS011;9663;48.996;8.334;2023-04-06T10:50:49;4.93;;;2.40;;
19059;SDS011;9663;48.996;8.334;2023-04-06T10:53:24;10.00;;;2.95;;
19059;SDS011;9663;48.996;8.334;2023-04-06T10:55:52;5.07;;;2.30;;
19059;SDS011;9663;48.996;8.334;2023-04-06T10:58:25;4.00;;;1.98;;
19059;SDS011;9663;48.996;8.334;2023-04-06T11:00:52;5.00;;;1.92;;
19059;SDS011;9663;48.996;8.334;2023-04-06T11:03:20;4.28;;;1.88;;
19059;SDS011;9663;48.996;8.334;2023-04-06T11:05:50;5.10;;;2.20;;
19059;SDS011;9663;48.996;8.334;2023-04-06T11:08:23;4.63;;;2.13;;
19059;SDS011;9663;48.996;8.334;2023-04-06T11:13:41;4.30;;;2.10;;
19059;SDS011;9663;48.996;8.334;2023-04-06T11:16:14;4.70;;;2.22;;
19059;SDS011;9663;48.996;8.334;2023-04-06T11:21:40;5.53;;;2.20;;
19059;SDS011;9663;48.996;8.334;2023-04-06T11:24:12;4.30;;;2.03;;
19059;SDS011;9663;48.996;8.334;2023-04-06T11:26:41;4.53;;;1.92;;
19059;SDS011;9663;48.996;8.334;2023-04-06T11:29:21;4.65;;;2.08;;
19059;SDS011;9663;48.996;8.334;2023-04-06T11:34:28;3.53;;;1.73;;
19059;SDS011;9663;48.996;8.334;2023-04-06T11:36:56;4.88;;;2.03;;
19059;SDS011;9663;48.996;8.334;2023-04-06T11:39:25;4.15;;;2.15;;
19059;SDS011;9663;48.996;8.334;2023-04-06T11:41:54;4.75;;;2.22;;
19059;SDS011;9663;48.996;8.334;2023-04-06T11:44:39;4.38;;;2.17;;
19059;SDS011;9663;48.996;8.334;2023-04-06T11:47:10;4.68;;;2.38;;
19059;SDS011;9663;48.996;8.334;2023-04-06T11:49:40;3.92;;;1.90;;
19059;SDS011;9663;48.996;8.334;2023-04-06T11:52:14;4.65;;;1.88;;
19059;SDS011;9663;48.996;8.334;2023-04-06T11:54:44;4.38;;;2.10;;
19059;SDS011;9663;48.996;8.334;2023-04-06T11:57:12;3.70;;;1.92;;
19059;SDS011;9663;48.996;8.334;2023-04-06T11:59:38;3.72;;;1.65;;
19059;SDS011;9663;48.996;8.334;2023-04-06T12:02:04;4.55;;;2.10;;
19059;SDS011;9663;48.996;8.334;2023-04-06T12:04:30;4.20;;;2.20;;
19059;SDS011;9663;48.996;8.334;2023-04-06T12:06:57;4.72;;;1.90;;
19059;SDS011;9663;48.996;8.334;2023-04-06T12:09:23;4.40;;;2.13;;
19059;SDS011;9663;48.996;8.334;2023-04-06T12:11:49;4.63;;;2.25;;
19059;SDS011;9663;48.996;8.334;2023-04-06T12:14:15;4.45;;;2.00;;
19059;SDS011;9663;48.996;8.334;2023-04-06T12:16:41;4.00;;;1.70;;
19059;SDS011;9663;48.996;8.334;2023-04-06T12:19:07;4.63;;;2.10;;
19059;SDS011;9663;48.996;8.334;2023-04-06T12:21:36;4.78;;;2.10;;
19059;SDS011;9663;48.996;8.334;2023-04-06T12:24:02;3.70;;;1.83;;
19059;SDS011;9663;48.996;8.334;2023-04-06T12:26:29;3.53;;;1.67;;
19059;SDS011;9663;48.996;8.334;2023-04-06T12:28:56;4.10;;;2.03;;
19059;SDS011;9663;48.996;8.334;2023-04-06T12:31:27;4.68;;;2.42;;
19059;SDS011;9663;48.996;8.334;2023-04-06T12:33:53;4.43;;;1.80;;
19059;SDS011;9663;48.996;8.334;2023-04-06T12:36:19;4.70;;;2.40;;
19059;SDS011;9663;48.996;8.334;2023-04-06T12:38:48;4.30;;;2.20;;
19059;SDS011;9663;48.996;8.334;2023-04-06T12:41:16;4.80;;;2.13;;
19059;SDS011;9663;48.996;8.334;2023-04-06T12:43:43;4.72;;;2.10;;
19059;SDS011;9663;48.996;8.334;2023-04-06T12:46:09;4.20;;;1.88;;
19059;SDS011;9663;48.996;8.334;2023-04-06T12:48:36;4.07;;;1.98;;
19059;SDS011;9663;48.996;8.334;2023-04-06T12:51:02;5.97;;;2.40;;
19059;SDS011;9663;48.996;8.334;2023-04-06T12:53:30;3.88;;;1.90;;
19059;SDS011;9663;48.996;8.334;2023-04-06T12:55:57;5.20;;;2.42;;
19059;SDS011;9663;48.996;8.334;2023-04-06T12:58:24;4.95;;;2.40;;
19059;SDS011;9663;48.996;8.334;2023-04-06T13:01:00;4.43;;;2.28;;
19059;SDS011;9663;48.996;8.334;2023-04-06T13:03:32;4.05;;;1.70;;
19059;SDS011;9663;48.996;8.334;2023-04-06T13:05:59;3.50;;;1.80;;
19059;SDS011;9663;48.996;8.334;2023-04-06T13:08:26;3.70;;;1.73;;
19059;SDS011;9663;48.996;8.334;2023-04-06T13:10:52;3.97;;;2.03;;
19059;SDS011;9663;48.996;8.334;2023-04-06T13:13:28;4.63;;;2.10;;
19059;SDS011;9663;48.996;8.334;2023-04-06T13:15:59;4.03;;;1.80;;
19059;SDS011;9663;48.996;8.334;2023-04-06T13:18:28;4.88;;;2.45;;
19059;SDS011;9663;48.996;8.334;2023-04-06T13:20:55;4.57;;;2.15;;
19059;SDS011;9663;48.996;8.334;2023-04-06T13:23:22;4.28;;;2.20;;
19059;SDS011;9663;48.996;8.334;2023-04-06T13:25:56;3.63;;;1.48;;
19059;SDS011;9663;48.996;8.334;2023-04-06T13:28:26;3.78;;;1.58;;
19059;SDS011;9663;48.996;8.334;2023-04-06T13:30:53;5.20;;;1.65;;
19059;SDS011;9663;48.996;8.334;2023-04-06T13:33:19;4.10;;;2.10;;
19059;SDS011;9663;48.996;8.334;2023-04-06T13:35:46;3.80;;;1.77;;
19059;SDS011;9663;48.996;8.334;2023-04-06T13:38:12;4.45;;;2.00;;
19059;SDS011;9663;48.996;8.334;2023-04-06T13:40:39;3.90;;;1.77;;
19059;SDS011;9663;48.996;8.334;2023-04-06T13:43:05;3.53;;;1.63;;
19059;SDS011;9663;48.996;8.334;2023-04-06T13:45:32;3.60;;;1.70;;
19059;SDS011;9663;48.996;8.334;2023-04-06T13:47:58;3.83;;;1.83;;
19059;SDS011;9663;48.996;8.334;2023-04-06T13:50:27;4.13;;;1.70;;
19059;SDS011;9663;48.996;8.334;2023-04-06T13:52:53;3.92;;;2.00;;
19059;SDS011;9663;48.996;8.334;2023-04-06T13:55:20;4.45;;;2.20;;
19059;SDS011;9663;48.996;8.334;2023-04-06T13:57:46;5.07;;;1.83;;
19059;SDS011;9663;48.996;8.334;2023-04-06T14:00:12;4.13;;;1.98;;
19059;SDS011;9663;48.996;8.334;2023-04-06T14:02:39;4.50;;;1.90;;
19059;SDS011;9663;48.996;8.334;2023-04-06T14:05:05;4.80;;;2.20;;
19059;SDS011;9663;48.996;8.334;2023-04-06T14:07:32;4.20;;;1.95;;
19059;SDS011;9663;48.996;8.334;2023-04-06T14:09:58;4.68;;;2.17;;
19059;SDS011;9663;48.996;8.334;2023-04-06T14:12:23;4.07;;;2.08;;
19059;SDS011;9663;48.996;8.334;2023-04-06T14:14:49;5.28;;;2.08;;
19059;SDS011;9663;48.996;8.334;2023-04-06T14:17:15;4.70;;;2.10;;
19059;SDS011;9663;48.996;8.334;2023-04-06T14:19:41;6.20;;;2.30;;
19059;SDS011;9663;48.996;8.334;2023-04-06T14:22:07;4.38;;;2.13;;
19059;SDS011;9663;48.996;8.334;2023-04-06T14:24:33;4.60;;;2.05;;
19059;SDS011;9663;48.996;8.334;2023-04-06T14:27:00;5.35;;;2.42;;
19059;SDS011;9663;48.996;8.334;2023-04-06T14:29:27;5.15;;;2.55;;
19059;SDS011;9663;48.996;8.334;2023-04-06T14:31:53;5.30;;;3.00;;
19059;SDS011;9663;48.996;8.334;2023-04-06T14:34:25;5.38;;;2.63;;
19059;SDS011;9663;48.996;8.334;2023-04-06T14:36:52;5.18;;;2.70;;
19059;SDS011;9663;48.996;8.334;2023-04-06T14:39:17;6.53;;;3.13;;
19059;SDS011;9663;48.996;8.334;2023-04-06T14:41:43;6.18;;;3.33;;
19059;SDS011;9663;48.996;8.334;2023-04-06T14:44:10;5.07;;;2.58;;
19059;SDS011;9663;48.996;8.334;2023-04-06T14:46:37;7.97;;;3.15;;
19059;SDS011;9663;48.996;8.334;2023-04-06T14:49:03;6.38;;;2.75;;
19059;SDS011;9663;48.996;8.334;2023-04-06T14:51:29;5.53;;;2.60;;
19059;SDS011;9663;48.996;8.334;2023-04-06T14:53:55;5.22;;;2.58;;
19059;SDS011;9663;48.996;8.334;2023-04-06T14:56:22;5.55;;;2.42;;
19059;SDS011;9663;48.996;8.334;2023-04-06T14:58:49;7.03;;;2.80;;
19059;SDS011;9663;48.996;8.334;2023-04-06T15:01:17;6.90;;;2.60;;
19059;SDS011;9663;48.996;8.334;2023-04-06T15:03:44;6.18;;;2.90;;
19059;SDS011;9663;48.996;8.334;2023-04-06T15:06:13;5.63;;;2.85;;
19059;SDS011;9663;48.996;8.334;2023-04-06T15:08:41;6.20;;;3.08;;
19059;SDS011;9663;48.996;8.334;2023-04-06T15:11:10;6.38;;;2.60;;
19059;SDS011;9663;48.996;8.334;2023-04-06T15:13:37;5.18;;;2.50;;
19059;SDS011;9663;48.996;8.334;2023-04-06T15:16:04;7.13;;;2.90;;
19059;SDS011;9663;48.996;8.334;2023-04-06T15:18:30;5.55;;;3.00;;
19059;SDS011;9663;48.996;8.334;2023-04-06T15:20:56;5.40;;;2.50;;
19059;SDS011;9663;48.996;8.334;2023-04-06T15:23:22;5.93;;;2.72;;